sensor_id;sensor_type;location;lat;lon;timestamp;P1;durP1;ratioP1;P2;durP2;ratioP2
22515;SDS011;11424;48.860;9.624;2023-04-24T00:01:34;39.8;;;43.9;;
22515;SDS011;11424;48.860;9.624;2023-04-24T00:06:34;38.5;;;43.2;;
22515;SDS011;11424;48.860;9.624;2023-04-24T00:11:34;42.6;;;48.4;;
22515;SDS011;11424;48.860;9.624;2023-04-24T00:16:34;70.5;;;109;;
22515;SDS011;11424;48.860;9.624;2023-04-24T00:21:34;84;;;168;;
22515;SDS011;11424;48.860;9.624;2023-04-24T00:26:34;51.8;;;78.3;;
22515;SDS011;11424;48.860;9.624;2023-04-24T00:31:34;60.6;;;91.3;;
22515;SDS011;11424;48.860;9.624;2023-04-24T00:36:34;48;;;61.5;;
22515;SDS011;11424;48.860;9.624;2023-04-24T00:41:34;61.5;;;88.1;;
22515;SDS011;11424;48.860;9.624;2023-04-24T00:46:34;72.7;;;123.9;;
22515;SDS011;11424;48.860;9.624;2023-04-24T00:51:34;52.5;;;63.1;;
22515;SDS011;11424;48.860;9.624;2023-04-24T00:56:34;36.2;;;40.2;;
22515;SDS011;11424;48.860;9.624;2023-04-24T01:01:34;29.1;;;31.5;;
22515;SDS011;11424;48.860;9.624;2023-04-24T01:06:34;62.5;;;67.9;;
22515;SDS011;11424;48.860;9.624;2023-04-24T01:11:34;57.5;;;63.5;;
22515;SDS011;11424;48.860;9.624;2023-04-24T01:16:34;63.6;;;70.7;;
22515;SDS011;11424;48.860;9.624;2023-04-24T01:21:35;63;;;69.4;;
22515;SDS011;11424;48.860;9.624;2023-04-24T01:26:34;74.1;;;81.6;;
22515;SDS011;11424;48.860;9.624;2023-04-24T01:31:34;81.4;;;89.4;;
22515;SDS011;11424;48.860;9.624;2023-04-24T01:36:34;56.7;;;60.6;;
22515;SDS011;11424;48.860;9.624;2023-04-24T01:41:34;60.2;;;65.1;;
22515;SDS011;11424;48.860;9.624;2023-04-24T01:46:34;59;;;63.4;;
22515;SDS011;11424;48.860;9.624;2023-04-24T01:51:34;56;;;61.3;;
22515;SDS011;11424;48.860;9.624;2023-04-24T01:56:34;59.4;;;65.9;;
22515;SDS011;11424;48.860;9.624;2023-04-24T02:01:34;53.1;;;58.1;;
22515;SDS011;11424;48.860;9.624;2023-04-24T02:06:34;40;;;43.9;;
22515;SDS011;11424;48.860;9.624;2023-04-24T02:11:34;57.8;;;63.6;;
22515;SDS011;11424;48.860;9.624;2023-04-24T02:16:34;57.8;;;64;;
22515;SDS011;11424;48.860;9.624;2023-04-24T02:21:34;51.1;;;54;;
22515;SDS011;11424;48.860;9.624;2023-04-24T02:26:34;53.4;;;56.8;;
22515;SDS011;11424;48.860;9.624;2023-04-24T02:31:34;62.5;;;69.4;;
22515;SDS011;11424;48.860;9.624;2023-04-24T02:36:34;62;;;68.8;;
22515;SDS011;11424;48.860;9.624;2023-04-24T02:41:34;64.7;;;71.7;;
22515;SDS011;11424;48.860;9.624;2023-04-24T02:46:34;63.5;;;70.2;;
22515;SDS011;11424;48.860;9.624;2023-04-24T02:51:34;57.8;;;63.6;;
22515;SDS011;11424;48.860;9.624;2023-04-24T02:56:34;48.2;;;53.2;;
22515;SDS011;11424;48.860;9.624;2023-04-24T03:01:34;59;;;65.2;;
22515;SDS011;11424;48.860;9.624;2023-04-24T03:06:34;53.8;;;56.9;;
22515;SDS011;11424;48.860;9.624;2023-04-24T03:11:34;62.6;;;69.6;;
22515;SDS011;11424;48.860;9.624;2023-04-24T03:16:34;58.5;;;65;;
22515;SDS011;11424;48.860;9.624;2023-04-24T03:21:34;57.2;;;63.1;;
22515;SDS011;11424;48.860;9.624;2023-04-24T03:26:34;59.2;;;65.5;;
22515;SDS011;11424;48.860;9.624;2023-04-24T03:31:34;62.8;;;69.8;;
22515;SDS011;11424;48.860;9.624;2023-04-24T03:36:34;58.2;;;64.6;;
22515;SDS011;11424;48.860;9.624;2023-04-24T03:41:34;58;;;63.9;;
22515;SDS011;11424;48.860;9.624;2023-04-24T03:46:34;58.2;;;64.2;;
22515;SDS011;11424;48.860;9.624;2023-04-24T03:51:34;44.1;;;46.4;;
22515;SDS011;11424;48.860;9.624;2023-04-24T03:56:34;42.6;;;44.7;;
22515;SDS011;11424;48.860;9.624;2023-04-24T04:01:34;41.7;;;43.8;;
22515;SDS011;11424;48.860;9.624;2023-04-24T04:06:34;24;;;25.1;;
22515;SDS011;11424;48.860;9.624;2023-04-24T04:11:34;22.4;;;26.6;;
22515;SDS011;11424;48.860;9.624;2023-04-24T04:16:34;27.2;;;33.4;;
22515;SDS011;11424;48.860;9.624;2023-04-24T04:21:34;24;;;27.3;;
22515;SDS011;11424;48.860;9.624;2023-04-24T04:26:34;20.8;;;23.1;;
22515;SDS011;11424;48.860;9.624;2023-04-24T04:31:34;23.9;;;26.2;;
22515;SDS011;11424;48.860;9.624;2023-04-24T04:36:34;12.6;;;13.1;;
22515;SDS011;11424;48.860;9.624;2023-04-24T04:41:34;35.3;;;36.9;;
22515;SDS011;11424;48.860;9.624;2023-04-24T04:46:34;33.4;;;35.1;;
22515;SDS011;11424;48.860;9.624;2023-04-24T04:51:34;51.4;;;56.1;;
22515;SDS011;11424;48.860;9.624;2023-04-24T04:56:34;57.3;;;63.4;;
22515;SDS011;11424;48.860;9.624;2023-04-24T05:01:34;52.6;;;57.8;;
22515;SDS011;11424;48.860;9.624;2023-04-24T05:06:34;56.7;;;62.6;;
22515;SDS011;11424;48.860;9.624;2023-04-24T05:11:34;52.4;;;57.6;;
22515;SDS011;11424;48.860;9.624;2023-04-24T05:16:34;29.5;;;30.8;;
22515;SDS011;11424;48.860;9.624;2023-04-24T05:21:34;18.4;;;19.2;;
22515;SDS011;11424;48.860;9.624;2023-04-24T05:26:34;7.9;;;8.2;;
22515;SDS011;11424;48.860;9.624;2023-04-24T05:31:34;54.1;;;58.9;;
22515;SDS011;11424;48.860;9.624;2023-04-24T05:36:34;54.8;;;60;;
22515;SDS011;11424;48.860;9.624;2023-04-24T05:41:34;53.7;;;58.6;;
22515;SDS011;11424;48.860;9.624;2023-04-24T05:46:34;53.7;;;58.8;;
22515;SDS011;11424;48.860;9.624;2023-04-24T05:51:34;47.4;;;51.5;;
22515;SDS011;11424;48.860;9.624;2023-04-24T05:56:34;54.4;;;59.1;;
22515;SDS011;11424;48.860;9.624;2023-04-24T06:01:34;31.4;;;32.9;;
22515;SDS011;11424;48.860;9.624;2023-04-24T06:06:34;15.6;;;16.3;;
22515;SDS011;11424;48.860;9.624;2023-04-24T06:11:34;30.8;;;34.3;;
22515;SDS011;11424;48.860;9.624;2023-04-24T06:16:35;27.5;;;30.7;;
22515;SDS011;11424;48.860;9.624;2023-04-24T06:21:34;32.5;;;35.5;;
22515;SDS011;11424;48.860;9.624;2023-04-24T06:26:35;48.3;;;52.5;;
22515;SDS011;11424;48.860;9.624;2023-04-24T06:31:34;49.2;;;53.5;;
22515;SDS011;11424;48.860;9.624;2023-04-24T06:36:34;50.3;;;54.6;;
22515;SDS011;11424;48.860;9.624;2023-04-24T06:41:34;45.7;;;49.7;;
22515;SDS011;11424;48.860;9.624;2023-04-24T06:46:34;38.5;;;40.4;;
22515;SDS011;11424;48.860;9.624;2023-04-24T06:51:34;35;;;37.9;;
22515;SDS011;11424;48.860;9.624;2023-04-24T06:56:34;52.1;;;56.4;;
22515;SDS011;11424;48.860;9.624;2023-04-24T07:01:34;48.9;;;52.9;;
22515;SDS011;11424;48.860;9.624;2023-04-24T07:06:35;32.7;;;35.6;;
22515;SDS011;11424;48.860;9.624;2023-04-24T07:11:34;36.5;;;39.9;;
22515;SDS011;11424;48.860;9.624;2023-04-24T07:16:35;47.3;;;51;;
22515;SDS011;11424;48.860;9.624;2023-04-24T07:21:35;50.1;;;54;;
22515;SDS011;11424;48.860;9.624;2023-04-24T07:26:35;50.8;;;55;;
22515;SDS011;11424;48.860;9.624;2023-04-24T07:31:35;41;;;44.5;;
22515;SDS011;11424;48.860;9.624;2023-04-24T07:36:34;20.5;;;22.9;;
22515;SDS011;11424;48.860;9.624;2023-04-24T07:41:35;17.8;;;19.7;;
22515;SDS011;11424;48.860;9.624;2023-04-24T07:46:35;49.5;;;53.3;;
22515;SDS011;11424;48.860;9.624;2023-04-24T07:51:35;50.3;;;54.2;;
22515;SDS011;11424;48.860;9.624;2023-04-24T07:56:35;52.6;;;56.8;;
22515;SDS011;11424;48.860;9.624;2023-04-24T08:01:35;44.2;;;47.7;;
22515;SDS011;11424;48.860;9.624;2023-04-24T08:06:35;49.1;;;53;;
22515;SDS011;11424;48.860;9.624;2023-04-24T08:11:35;26.1;;;28.4;;
22515;SDS011;11424;48.860;9.624;2023-04-24T08:16:35;21.4;;;22.3;;
22515;SDS011;11424;48.860;9.624;2023-04-24T08:21:35;38.7;;;40.5;;
22515;SDS011;11424;48.860;9.624;2023-04-24T08:26:35;42.6;;;44.7;;
22515;SDS011;11424;48.860;9.624;2023-04-24T08:31:35;52.6;;;56.6;;
22515;SDS011;11424;48.860;9.624;2023-04-24T08:36:35;51.6;;;55.7;;
22515;SDS011;11424;48.860;9.624;2023-04-24T08:41:35;50.7;;;54.9;;
22515;SDS011;11424;48.860;9.624;2023-04-24T08:46:35;52.1;;;56.3;;
22515;SDS011;11424;48.860;9.624;2023-04-24T08:51:36;50.5;;;54.5;;
22515;SDS011;11424;48.860;9.624;2023-04-24T08:56:35;41.4;;;43.4;;
22515;SDS011;11424;48.860;9.624;2023-04-24T09:01:35;37.8;;;39.6;;
22515;SDS011;11424;48.860;9.624;2023-04-24T09:06:35;40.8;;;42.9;;
22515;SDS011;11424;48.860;9.624;2023-04-24T09:11:35;51.7;;;55.8;;
22515;SDS011;11424;48.860;9.624;2023-04-24T09:16:35;49.5;;;53.6;;
22515;SDS011;11424;48.860;9.624;2023-04-24T09:21:35;51.3;;;55.6;;
22515;SDS011;11424;48.860;9.624;2023-04-24T09:26:35;52.2;;;56.8;;
22515;SDS011;11424;48.860;9.624;2023-04-24T09:31:35;52.3;;;56.8;;
22515;SDS011;11424;48.860;9.624;2023-04-24T09:36:35;53.9;;;59;;
22515;SDS011;11424;48.860;9.624;2023-04-24T09:41:35;42.5;;;44.7;;
22515;SDS011;11424;48.860;9.624;2023-04-24T09:46:35;44.1;;;46.4;;
22515;SDS011;11424;48.860;9.624;2023-04-24T09:51:35;52.7;;;57.5;;
22515;SDS011;11424;48.860;9.624;2023-04-24T09:56:35;50.4;;;55.1;;
22515;SDS011;11424;48.860;9.624;2023-04-24T10:01:35;52.1;;;57;;
22515;SDS011;11424;48.860;9.624;2023-04-24T10:06:35;46.8;;;51.1;;
22515;SDS011;11424;48.860;9.624;2023-04-24T10:11:35;54.4;;;59.9;;
22515;SDS011;11424;48.860;9.624;2023-04-24T10:16:35;38.8;;;42;;
22515;SDS011;11424;48.860;9.624;2023-04-24T10:21:35;9.8;;;15.3;;
22515;SDS011;11424;48.860;9.624;2023-04-24T10:26:35;1.5;;;1.6;;
22515;SDS011;11424;48.860;9.624;2023-04-24T10:31:36;3.7;;;4.1;;
22515;SDS011;11424;48.860;9.624;2023-04-24T10:36:35;2.9;;;3.2;;
22515;SDS011;11424;48.860;9.624;2023-04-24T10:41:36;3.1;;;3.8;;
22515;SDS011;11424;48.860;9.624;2023-04-24T10:46:35;4;;;5;;
22515;SDS011;11424;48.860;9.624;2023-04-24T10:51:50;3.6;;;4.3;;
22515;SDS011;11424;48.860;9.624;2023-04-24T10:56:35;4.4;;;6.8;;
22515;SDS011;11424;48.860;9.624;2023-04-24T11:01:35;4;;;6.6;;
22515;SDS011;11424;48.860;9.624;2023-04-24T11:06:35;5.6;;;10.8;;
22515;SDS011;11424;48.860;9.624;2023-04-24T11:11:35;6.7;;;12.3;;
22515;SDS011;11424;48.860;9.624;2023-04-24T11:16:36;5.2;;;9.3;;
22515;SDS011;11424;48.860;9.624;2023-04-24T11:21:39;5.8;;;10.1;;
22515;SDS011;11424;48.860;9.624;2023-04-24T11:26:36;5.2;;;8.5;;
22515;SDS011;11424;48.860;9.624;2023-04-24T11:31:38;6.1;;;10.8;;
22515;SDS011;11424;48.860;9.624;2023-04-24T11:36:35;5.7;;;11;;
22515;SDS011;11424;48.860;9.624;2023-04-24T11:41:35;6.5;;;11.2;;
22515;SDS011;11424;48.860;9.624;2023-04-24T11:46:35;7.1;;;13.1;;
22515;SDS011;11424;48.860;9.624;2023-04-24T11:51:35;6.2;;;9.9;;
22515;SDS011;11424;48.860;9.624;2023-04-24T11:56:35;1.6;;;1.9;;
22515;SDS011;11424;48.860;9.624;2023-04-24T12:01:42;1.9;;;2;;
22515;SDS011;11424;48.860;9.624;2023-04-24T12:06:35;3.3;;;3.5;;
22515;SDS011;11424;48.860;9.624;2023-04-24T12:11:35;10.6;;;15.1;;
22515;SDS011;11424;48.860;9.624;2023-04-24T12:16:35;12.1;;;16;;
22515;SDS011;11424;48.860;9.624;2023-04-24T12:21:35;15.3;;;22.3;;
22515;SDS011;11424;48.860;9.624;2023-04-24T12:26:35;14.8;;;19;;
22515;SDS011;11424;48.860;9.624;2023-04-24T12:31:35;13.2;;;17.2;;
22515;SDS011;11424;48.860;9.624;2023-04-24T12:36:35;4.3;;;4.5;;
22515;SDS011;11424;48.860;9.624;2023-04-24T12:41:35;4.4;;;4.7;;
22515;SDS011;11424;48.860;9.624;2023-04-24T12:46:35;9.8;;;10.2;;
22515;SDS011;11424;48.860;9.624;2023-04-24T12:51:35;39.2;;;42.4;;
22515;SDS011;11424;48.860;9.624;2023-04-24T12:56:35;48.9;;;52.7;;
22515;SDS011;11424;48.860;9.624;2023-04-24T13:01:35;52;;;56.2;;
22515;SDS011;11424;48.860;9.624;2023-04-24T13:06:35;38.6;;;41.7;;
22515;SDS011;11424;48.860;9.624;2023-04-24T13:11:35;47.6;;;51.7;;
22515;SDS011;11424;48.860;9.624;2023-04-24T13:16:36;37.8;;;41.6;;
22515;SDS011;11424;48.860;9.624;2023-04-24T13:21:35;41.9;;;43.9;;
22515;SDS011;11424;48.860;9.624;2023-04-24T13:26:35;44.8;;;47.1;;
22515;SDS011;11424;48.860;9.624;2023-04-24T13:31:35;38.9;;;42.6;;
22515;SDS011;11424;48.860;9.624;2023-04-24T13:36:35;30.8;;;38.9;;
22515;SDS011;11424;48.860;9.624;2023-04-24T13:41:35;30.5;;;40.2;;
22515;SDS011;11424;48.860;9.624;2023-04-24T13:46:35;31.5;;;40.5;;
22515;SDS011;11424;48.860;9.624;2023-04-24T13:51:35;31.9;;;39.2;;
22515;SDS011;11424;48.860;9.624;2023-04-24T13:56:35;34;;;40.7;;
22515;SDS011;11424;48.860;9.624;2023-04-24T14:01:35;50.5;;;55.9;;
22515;SDS011;11424;48.860;9.624;2023-04-24T14:06:35;31.6;;;33;;
22515;SDS011;11424;48.860;9.624;2023-04-24T14:11:36;53.5;;;58.3;;
22515;SDS011;11424;48.860;9.624;2023-04-24T14:16:35;50.9;;;55.1;;
22515;SDS011;11424;48.860;9.624;2023-04-24T14:21:35;55.3;;;60.2;;
22515;SDS011;11424;48.860;9.624;2023-04-24T14:26:35;124.1;;;137.4;;
22515;SDS011;11424;48.860;9.624;2023-04-24T14:31:35;59.5;;;64.7;;
22515;SDS011;11424;48.860;9.624;2023-04-24T14:36:35;62.5;;;68.2;;
22515;SDS011;11424;48.860;9.624;2023-04-24T14:41:35;72.1;;;79.9;;
22515;SDS011;11424;48.860;9.624;2023-04-24T14:46:35;35;;;38.7;;
22515;SDS011;11424;48.860;9.624;2023-04-24T14:51:35;31.5;;;35.7;;
22515;SDS011;11424;48.860;9.624;2023-04-24T14:56:35;28.9;;;34.8;;
22515;SDS011;11424;48.860;9.624;2023-04-24T15:01:35;31.4;;;35.2;;
22515;SDS011;11424;48.860;9.624;2023-04-24T15:06:35;30.2;;;38.4;;
22515;SDS011;11424;48.860;9.624;2023-04-24T15:11:36;29.2;;;36.1;;
22515;SDS011;11424;48.860;9.624;2023-04-24T15:16:35;23.9;;;33.5;;
22515;SDS011;11424;48.860;9.624;2023-04-24T15:21:35;13.9;;;23.8;;
22515;SDS011;11424;48.860;9.624;2023-04-24T15:26:35;15.2;;;27;;
22515;SDS011;11424;48.860;9.624;2023-04-24T15:31:35;13.6;;;20.7;;
22515;SDS011;11424;48.860;9.624;2023-04-24T15:36:35;1.3;;;1.4;;
22515;SDS011;11424;48.860;9.624;2023-04-24T15:41:35;2.2;;;2.3;;
22515;SDS011;11424;48.860;9.624;2023-04-24T15:46:35;2.5;;;2.7;;
22515;SDS011;11424;48.860;9.624;2023-04-24T15:51:35;18.8;;;26.1;;
22515;SDS011;11424;48.860;9.624;2023-04-24T15:56:35;14.6;;;20.7;;
22515;SDS011;11424;48.860;9.624;2023-04-24T16:01:38;20.3;;;29.8;;
22515;SDS011;11424;48.860;9.624;2023-04-24T16:06:35;20.6;;;28.9;;
22515;SDS011;11424;48.860;9.624;2023-04-24T16:11:35;21.8;;;29;;
22515;SDS011;11424;48.860;9.624;2023-04-24T16:16:35;6.5;;;6.9;;
22515;SDS011;11424;48.860;9.624;2023-04-24T16:21:35;6.3;;;6.6;;
22515;SDS011;11424;48.860;9.624;2023-04-24T16:26:35;6;;;6.3;;
22515;SDS011;11424;48.860;9.624;2023-04-24T16:31:35;20.6;;;29.4;;
22515;SDS011;11424;48.860;9.624;2023-04-24T16:36:35;27.8;;;35.8;;
22515;SDS011;11424;48.860;9.624;2023-04-24T16:41:35;33.6;;;40.4;;
22515;SDS011;11424;48.860;9.624;2023-04-24T16:46:35;60.1;;;66.1;;
22515;SDS011;11424;48.860;9.624;2023-04-24T16:51:35;60.5;;;67;;
22515;SDS011;11424;48.860;9.624;2023-04-24T16:56:35;62.4;;;69.1;;
22515;SDS011;11424;48.860;9.624;2023-04-24T17:01:35;46;;;48.3;;
22515;SDS011;11424;48.860;9.624;2023-04-24T17:06:35;49.4;;;51.9;;
22515;SDS011;11424;48.860;9.624;2023-04-24T17:11:36;71.5;;;79.5;;
22515;SDS011;11424;48.860;9.624;2023-04-24T17:16:36;47.9;;;53.3;;
22515;SDS011;11424;48.860;9.624;2023-04-24T17:21:35;61.2;;;67.4;;
22515;SDS011;11424;48.860;9.624;2023-04-24T17:26:35;63;;;69.1;;
22515;SDS011;11424;48.860;9.624;2023-04-24T17:31:35;45.2;;;57.6;;
22515;SDS011;11424;48.860;9.624;2023-04-24T17:36:35;49.2;;;54.1;;
22515;SDS011;11424;48.860;9.624;2023-04-24T17:41:35;57.8;;;63.4;;
22515;SDS011;11424;48.860;9.624;2023-04-24T17:46:35;47.7;;;50.2;;
22515;SDS011;11424;48.860;9.624;2023-04-24T17:51:35;41.2;;;45.7;;
22515;SDS011;11424;48.860;9.624;2023-04-24T17:56:35;22.2;;;31;;
22515;SDS011;11424;48.860;9.624;2023-04-24T18:01:35;23.8;;;36;;
22515;SDS011;11424;48.860;9.624;2023-04-24T18:06:35;34.8;;;38.2;;
22515;SDS011;11424;48.860;9.624;2023-04-24T18:11:35;53.4;;;59.2;;
22515;SDS011;11424;48.860;9.624;2023-04-24T18:16:35;58.2;;;64.2;;
22515;SDS011;11424;48.860;9.624;2023-04-24T18:21:35;58.4;;;64.4;;
22515;SDS011;11424;48.860;9.624;2023-04-24T18:26:35;57.7;;;63.9;;
22515;SDS011;11424;48.860;9.624;2023-04-24T18:31:35;51;;;56.2;;
22515;SDS011;11424;48.860;9.624;2023-04-24T18:36:35;57;;;62.8;;
22515;SDS011;11424;48.860;9.624;2023-04-24T18:41:35;57.7;;;64.1;;
22515;SDS011;11424;48.860;9.624;2023-04-24T18:46:35;60;;;66.3;;
22515;SDS011;11424;48.860;9.624;2023-04-24T18:51:35;58.9;;;65.3;;
22515;SDS011;11424;48.860;9.624;2023-04-24T18:56:35;59;;;65.2;;
22515;SDS011;11424;48.860;9.624;2023-04-24T19:01:35;58.1;;;64.2;;
22515;SDS011;11424;48.860;9.624;2023-04-24T19:06:35;52.6;;;58.5;;
22515;SDS011;11424;48.860;9.624;2023-04-24T19:11:36;26.8;;;32.8;;
22515;SDS011;11424;48.860;9.624;2023-04-24T19:16:35;10.3;;;11.8;;
22515;SDS011;11424;48.860;9.624;2023-04-24T19:21:35;11.3;;;12.2;;
22515;SDS011;11424;48.860;9.624;2023-04-24T19:26:35;49.2;;;52;;
22515;SDS011;11424;48.860;9.624;2023-04-24T19:31:35;60.2;;;66.2;;
22515;SDS011;11424;48.860;9.624;2023-04-24T19:36:35;59.9;;;66.4;;
22515;SDS011;11424;48.860;9.624;2023-04-24T19:41:35;35.3;;;43.6;;
22515;SDS011;11424;48.860;9.624;2023-04-24T19:46:35;64.3;;;71.4;;
22515;SDS011;11424;48.860;9.624;2023-04-24T19:51:35;34.8;;;43;;
22515;SDS011;11424;48.860;9.624;2023-04-24T19:56:35;5.9;;;6.3;;
22515;SDS011;11424;48.860;9.624;2023-04-24T20:01:35;13.3;;;14;;
22515;SDS011;11424;48.860;9.624;2023-04-24T20:06:35;10.3;;;10.9;;
22515;SDS011;11424;48.860;9.624;2023-04-24T20:11:35;22.2;;;24.7;;
22515;SDS011;11424;48.860;9.624;2023-04-24T20:16:35;23.3;;;31.1;;
22515;SDS011;11424;48.860;9.624;2023-04-24T20:21:35;25.9;;;27.8;;
22515;SDS011;11424;48.860;9.624;2023-04-24T20:26:35;12.7;;;13.5;;
22515;SDS011;11424;48.860;9.624;2023-04-24T20:31:35;12.7;;;13.6;;
22515;SDS011;11424;48.860;9.624;2023-04-24T20:36:35;5;;;5.4;;
22515;SDS011;11424;48.860;9.624;2023-04-24T20:41:35;4.1;;;4.4;;
22515;SDS011;11424;48.860;9.624;2023-04-24T20:46:35;6.5;;;7;;
22515;SDS011;11424;48.860;9.624;2023-04-24T20:51:35;6.1;;;6.5;;
22515;SDS011;11424;48.860;9.624;2023-04-24T20:56:35;6.9;;;7.3;;
22515;SDS011;11424;48.860;9.624;2023-04-24T21:01:35;9.1;;;9.8;;
22515;SDS011;11424;48.860;9.624;2023-04-24T21:06:36;8.9;;;9.5;;
22515;SDS011;11424;48.860;9.624;2023-04-24T21:11:35;2.2;;;2.4;;
22515;SDS011;11424;48.860;9.624;2023-04-24T21:16:35;2.7;;;2.9;;
22515;SDS011;11424;48.860;9.624;2023-04-24T21:21:36;2.5;;;2.7;;
22515;SDS011;11424;48.860;9.624;2023-04-24T21:26:35;3.5;;;3.7;;
22515;SDS011;11424;48.860;9.624;2023-04-24T21:31:35;2.4;;;2.5;;
22515;SDS011;11424;48.860;9.624;2023-04-24T21:36:35;2.3;;;2.4;;
22515;SDS011;11424;48.860;9.624;2023-04-24T21:41:35;4.3;;;4.5;;
22515;SDS011;11424;48.860;9.624;2023-04-24T21:46:35;5.2;;;5.5;;
22515;SDS011;11424;48.860;9.624;2023-04-24T21:51:35;16.9;;;18;;
22515;SDS011;11424;48.860;9.624;2023-04-24T21:56:36;6.6;;;7;;
22515;SDS011;11424;48.860;9.624;2023-04-24T22:01:35;12.6;;;13.4;;
22515;SDS011;11424;48.860;9.624;2023-04-24T22:06:36;8.1;;;8.7;;
22515;SDS011;11424;48.860;9.624;2023-04-24T22:11:35;9;;;9.5;;
22515;SDS011;11424;48.860;9.624;2023-04-24T22:16:36;6.3;;;6.7;;
22515;SDS011;11424;48.860;9.624;2023-04-24T22:21:35;13;;;13.9;;
22515;SDS011;11424;48.860;9.624;2023-04-24T22:26:36;13.1;;;14;;
22515;SDS011;11424;48.860;9.624;2023-04-24T22:31:36;16.2;;;17.8;;
22515;SDS011;11424;48.860;9.624;2023-04-24T22:36:35;5.3;;;5.6;;
22515;SDS011;11424;48.860;9.624;2023-04-24T22:41:36;12.1;;;12.8;;
22515;SDS011;11424;48.860;9.624;2023-04-24T22:46:35;1.7;;;1.8;;
22515;SDS011;11424;48.860;9.624;2023-04-24T22:51:36;10.3;;;10.9;;
22515;SDS011;11424;48.860;9.624;2023-04-24T22:56:36;2.3;;;2.4;;
22515;SDS011;11424;48.860;9.624;2023-04-24T23:01:36;1.6;;;1.7;;
22515;SDS011;11424;48.860;9.624;2023-04-24T23:06:36;1.7;;;1.9;;
22515;SDS011;11424;48.860;9.624;2023-04-24T23:11:36;2.4;;;2.5;;
22515;SDS011;11424;48.860;9.624;2023-04-24T23:16:36;4.2;;;4.4;;
22515;SDS011;11424;48.860;9.624;2023-04-24T23:21:36;1.8;;;1.9;;
22515;SDS011;11424;48.860;9.624;2023-04-24T23:26:36;2;;;2.1;;
22515;SDS011;11424;48.860;9.624;2023-04-24T23:31:36;2.2;;;2.3;;
22515;SDS011;11424;48.860;9.624;2023-04-24T23:36:36;2.3;;;2.9;;
22515;SDS011;11424;48.860;9.624;2023-04-24T23:41:36;2.4;;;2.6;;
22515;SDS011;11424;48.860;9.624;2023-04-24T23:46:36;2.1;;;2.2;;
22515;SDS011;11424;48.860;9.624;2023-04-24T23:51:36;2;;;2.1;;
22515;SDS011;11424;48.860;9.624;2023-04-24T23:56:36;1.7;;;1.8;;
